X  Close Metar Aviation Weather Data     KJAC Jackson Hole Airport
Temperature
27°F Temperature
21°F Dewpoint
80% Humidity



Wind
23 MPH
37 KM/H
10 M/S
20 KTS



200°
SSW
Current Conditions

Light Snow Light Snow
Pressure 997.63 (hPa) - 29.46 (inHg)
Visibility 2 (mile) - 3.2 (km)
Airport
Airport-code KJAC

Location: Jackson Hole Airport
Distance: 79 (mi)

Metar:
KJAC 270512Z AUTO 20020KT 2SM -SN SCT019 BKN028 OVC036 M03/M06 A2946 RMK AO2 P0000 FZRANO

Time: 02-27-2024 05:12 MST